Main page
METAR-TAF:

METAR-TAF

Airports :

Oil platform

P11-b, Netherlands

latitude: 52-21-36N, longitude: 3-20-30E, elevation: 24 m

Current weather observation

The report was made 32 minutes ago, at 22:25 UTC
Wind 18 kt from the South, varying between East/Southeast and Southwest
Temperature 8°C
Humidity 87%
Pressure 1002 hPa
Visibility 10 km or more
Few clouds at a height of 1100 ft
(light) unknown

METAR: EHPG 212225Z AUTO 19018KT 110V230 9999 -UP FEW011 08/06 Q1002 W///H///

Time: 23:57 (22:57 UTC)


TAF: missing

Weather observations and forecasts of more than 4000 airports (METAR and TAF reports).

The available stations are represented by yellow and red dots on the map.

Hover mouse over dot to see the name of the station.

Then click to see weather observations and forecasts.

To change the map : click on the green buttons with a black cross to zoom in, on the green button with a dash to zoom out, or on the green arrows for adjacent maps.


METAR-TAF: